createdAt,value
2018-03-20T00:00:01.365Z,874.35
2018-03-20T00:01:22.357Z,874.35
2018-03-20T00:02:01.334Z,874.32
2018-03-20T00:03:01.324Z,874.33
2018-03-20T00:04:22.299Z,874.35
2018-03-20T00:05:01.287Z,874.34
2018-03-20T00:06:22.266Z,874.33
2018-03-20T00:07:01.247Z,874.32
2018-03-20T00:08:01.229Z,874.34
2018-03-20T00:09:22.208Z,874.33
2018-03-20T00:10:01.189Z,874.32
2018-03-20T00:11:22.180Z,874.36
2018-03-20T00:12:01.153Z,874.30
2018-03-20T00:13:01.138Z,874.33
2018-03-20T00:14:22.122Z,874.33
2018-03-20T00:15:01.118Z,874.31
2018-03-20T00:16:22.086Z,874.38
2018-03-20T00:17:01.068Z,874.32
2018-03-20T00:18:01.053Z,874.36
2018-03-20T00:19:22.037Z,874.35
2018-03-20T00:20:01.018Z,874.35
2018-03-20T00:21:22.003Z,874.32
2018-03-20T00:22:00.981Z,874.34
2018-03-20T00:23:00.967Z,874.35
2018-03-20T00:24:21.947Z,874.35
2018-03-20T00:25:00.927Z,874.36
2018-03-20T00:26:21.916Z,874.34
2018-03-20T00:27:00.894Z,874.33
2018-03-20T00:28:00.872Z,874.38
2018-03-20T00:29:21.857Z,874.38
2018-03-20T00:30:00.840Z,874.34
2018-03-20T00:31:21.823Z,874.40
2018-03-20T00:32:00.803Z,874.40
2018-03-20T00:33:00.783Z,874.39
2018-03-20T00:34:21.767Z,874.39
2018-03-20T00:35:00.751Z,874.45
2018-03-20T00:36:21.731Z,874.45
2018-03-20T00:37:00.716Z,874.41
2018-03-20T00:38:00.695Z,874.44
2018-03-20T00:39:21.684Z,874.43
2018-03-20T00:40:00.658Z,874.46
2018-03-20T00:41:21.646Z,874.49
2018-03-20T00:42:00.624Z,874.49
2018-03-20T00:43:00.607Z,874.50
2018-03-20T00:44:21.597Z,874.50
2018-03-20T00:45:00.573Z,874.50
2018-03-20T00:46:21.555Z,874.51
2018-03-20T00:47:00.533Z,874.50
2018-03-20T00:48:00.519Z,874.48
2018-03-20T00:49:21.498Z,874.50
2018-03-20T00:50:00.483Z,874.47
2018-03-20T00:51:21.471Z,874.51
2018-03-20T00:52:00.444Z,874.52
2018-03-20T00:53:00.426Z,874.54
2018-03-20T00:54:21.410Z,874.56
2018-03-20T00:55:00.389Z,874.51
2018-03-20T00:56:21.376Z,874.50
2018-03-20T00:57:00.357Z,874.54
2018-03-20T00:58:00.344Z,874.55
2018-03-20T00:59:21.324Z,874.55
2018-03-20T01:00:00.306Z,874.51
2018-03-20T01:01:21.291Z,874.52
2018-03-20T01:02:00.266Z,874.54
2018-03-20T01:03:00.251Z,874.54
2018-03-20T01:04:21.235Z,874.53
2018-03-20T01:05:00.214Z,874.54
2018-03-20T01:06:21.198Z,874.52
2018-03-20T01:07:00.181Z,874.52
2018-03-20T01:08:00.164Z,874.50
2018-03-20T01:09:21.149Z,874.51
2018-03-20T01:10:00.126Z,874.51
2018-03-20T01:11:21.111Z,874.53
2018-03-20T01:12:00.100Z,874.52
2018-03-20T01:13:00.077Z,874.52
2018-03-20T01:14:21.052Z,874.51
2018-03-20T01:15:00.039Z,874.54
2018-03-20T01:16:21.021Z,874.50
2018-03-20T01:16:59.998Z,874.50
2018-03-20T01:17:59.983Z,874.51
2018-03-20T01:19:20.970Z,874.52
2018-03-20T01:19:59.945Z,874.52
2018-03-20T01:21:20.927Z,874.52
2018-03-20T01:21:59.914Z,874.51
2018-03-20T01:22:59.895Z,874.50
2018-03-20T01:24:20.877Z,874.51
2018-03-20T01:24:59.864Z,874.49
2018-03-20T01:26:20.848Z,874.50
2018-03-20T01:26:59.829Z,874.47
2018-03-20T01:27:59.809Z,874.47
2018-03-20T01:29:20.785Z,874.49
2018-03-20T01:29:59.771Z,874.47
2018-03-20T01:31:20.754Z,874.48
2018-03-20T01:31:59.731Z,874.50
2018-03-20T01:32:59.719Z,874.46
2018-03-20T01:34:20.702Z,874.46
2018-03-20T01:34:59.682Z,874.50
2018-03-20T01:36:20.662Z,874.51
2018-03-20T01:36:59.644Z,874.52
2018-03-20T01:37:59.627Z,874.51
2018-03-20T01:39:20.607Z,874.50
2018-03-20T01:39:59.592Z,874.49
2018-03-20T01:41:20.573Z,874.52
2018-03-20T01:41:59.559Z,874.50
2018-03-20T01:42:59.537Z,874.53
2018-03-20T01:44:20.514Z,874.51
2018-03-20T01:44:59.504Z,874.54
2018-03-20T01:46:20.484Z,874.53
2018-03-20T01:46:59.471Z,874.49
2018-03-20T01:47:59.455Z,874.46
2018-03-20T01:49:20.430Z,874.47
2018-03-20T01:49:59.410Z,874.45
2018-03-20T01:51:20.398Z,874.45
2018-03-20T01:51:59.378Z,874.43
2018-03-20T01:52:59.364Z,874.44
2018-03-20T01:54:20.342Z,874.43
2018-03-20T01:54:59.321Z,874.42
2018-03-20T01:56:20.306Z,874.45
2018-03-20T01:56:59.288Z,874.45
2018-03-20T01:57:59.266Z,874.45
2018-03-20T01:59:20.253Z,874.45
2018-03-20T01:59:59.235Z,874.47
2018-03-20T02:01:20.223Z,874.44
2018-03-20T02:01:59.199Z,874.43
2018-03-20T02:02:59.184Z,874.44
2018-03-20T02:04:20.165Z,874.47
2018-03-20T02:04:59.147Z,874.48
2018-03-20T02:06:20.130Z,874.46
2018-03-20T02:06:59.110Z,874.45
2018-03-20T02:07:59.089Z,874.39
2018-03-20T02:09:20.080Z,874.42
2018-03-20T02:09:59.056Z,874.46
2018-03-20T02:11:20.041Z,874.41
2018-03-20T02:11:59.020Z,874.41
2018-03-20T02:12:59.003Z,874.42
2018-03-20T02:14:19.982Z,874.41
2018-03-20T02:14:58.971Z,874.36
2018-03-20T02:16:19.953Z,874.42
2018-03-20T02:16:58.931Z,874.41
2018-03-20T02:17:58.912Z,874.40
2018-03-20T02:19:19.902Z,874.44
2018-03-20T02:19:58.878Z,874.41
2018-03-20T02:21:19.856Z,874.42
2018-03-20T02:21:58.839Z,874.43
2018-03-20T02:22:58.825Z,874.45
2018-03-20T02:24:19.807Z,874.49
2018-03-20T02:24:58.785Z,874.46
2018-03-20T02:26:19.770Z,874.47
2018-03-20T02:26:58.746Z,874.48
2018-03-20T02:27:58.736Z,874.45
2018-03-20T02:29:19.714Z,874.51
2018-03-20T02:29:58.700Z,874.52
2018-03-20T02:31:19.685Z,874.55
2018-03-20T02:31:58.662Z,874.56
2018-03-20T02:32:58.642Z,874.55
2018-03-20T02:34:19.626Z,874.56
2018-03-20T02:34:58.603Z,874.57
2018-03-20T02:36:19.588Z,874.56
2018-03-20T02:36:58.567Z,874.59
2018-03-20T02:37:58.554Z,874.57
2018-03-20T02:39:19.538Z,874.57
2018-03-20T02:39:58.511Z,874.55
2018-03-20T02:41:19.498Z,874.57
2018-03-20T02:41:58.480Z,874.57
2018-03-20T02:42:58.466Z,874.58
2018-03-20T02:44:19.448Z,874.59
2018-03-20T02:44:58.424Z,874.56
2018-03-20T02:46:19.408Z,874.57
2018-03-20T02:46:58.390Z,874.55
2018-03-20T02:47:58.372Z,874.59
2018-03-20T02:49:19.354Z,874.61
2018-03-20T02:49:58.329Z,874.59
2018-03-20T02:51:19.320Z,874.59
2018-03-20T02:51:58.297Z,874.63
2018-03-20T02:52:58.278Z,874.62
2018-03-20T02:54:19.266Z,874.62
2018-03-20T02:54:58.244Z,874.67
2018-03-20T02:56:19.225Z,874.70
2018-03-20T02:56:58.205Z,874.68
2018-03-20T02:57:58.192Z,874.69
2018-03-20T02:59:19.174Z,874.70
2018-03-20T02:59:58.155Z,874.65
2018-03-20T03:01:19.140Z,874.68
2018-03-20T03:01:58.118Z,874.72
2018-03-20T03:02:58.100Z,874.72
2018-03-20T03:04:19.084Z,874.73
2018-03-20T03:04:58.059Z,874.69
2018-03-20T03:06:19.053Z,874.72
2018-03-20T03:06:58.026Z,874.71
2018-03-20T03:07:58.005Z,874.70
2018-03-20T03:09:18.987Z,874.69
2018-03-20T03:09:57.968Z,874.71
2018-03-20T03:11:18.951Z,874.71
2018-03-20T03:11:57.931Z,874.71
2018-03-20T03:12:57.914Z,874.64
2018-03-20T03:14:18.907Z,874.69
2018-03-20T03:14:57.880Z,874.68
2018-03-20T03:16:18.863Z,874.66
2018-03-20T03:16:57.848Z,874.64
2018-03-20T03:17:57.838Z,874.65
2018-03-20T03:19:18.812Z,874.63
2018-03-20T03:19:57.796Z,874.60
2018-03-20T03:21:18.774Z,874.59
2018-03-20T03:21:57.749Z,874.62
2018-03-20T03:22:57.733Z,874.63
2018-03-20T03:24:18.721Z,874.65
2018-03-20T03:24:57.693Z,874.66
2018-03-20T03:26:18.690Z,874.67
2018-03-20T03:26:57.659Z,874.67
2018-03-20T03:27:57.643Z,874.67
2018-03-20T03:29:18.628Z,874.67
2018-03-20T03:29:57.614Z,874.68
2018-03-20T03:31:18.597Z,874.69
2018-03-20T03:31:57.574Z,874.69
2018-03-20T03:32:57.558Z,874.73
2018-03-20T03:34:18.538Z,874.72
2018-03-20T03:34:57.522Z,874.73
2018-03-20T03:36:18.502Z,874.74
2018-03-20T03:36:57.481Z,874.77
2018-03-20T03:37:57.459Z,874.74
2018-03-20T03:39:18.451Z,874.73
2018-03-20T03:39:57.429Z,874.76
2018-03-20T03:41:18.408Z,874.74
2018-03-20T03:41:57.389Z,874.76
2018-03-20T03:42:57.367Z,874.78
2018-03-20T03:44:18.361Z,874.77
2018-03-20T03:44:57.338Z,874.81
2018-03-20T03:46:18.324Z,874.80
2018-03-20T03:46:57.302Z,874.82
2018-03-20T03:47:57.309Z,874.79
2018-03-20T03:49:18.260Z,874.84
2018-03-20T03:49:57.254Z,874.83
2018-03-20T03:51:18.232Z,874.79
2018-03-20T03:51:57.209Z,874.81
2018-03-20T03:52:57.196Z,874.81
2018-03-20T03:54:18.174Z,874.84
2018-03-20T03:54:57.151Z,874.83
2018-03-20T03:56:18.136Z,874.84
2018-03-20T03:56:57.118Z,874.85
2018-03-20T03:57:57.098Z,874.80
2018-03-20T03:59:18.082Z,874.83
2018-03-20T03:59:57.065Z,874.85
2018-03-20T04:01:18.043Z,874.82
2018-03-20T04:01:57.025Z,874.89
2018-03-20T04:02:57.005Z,874.86
2018-03-20T04:04:17.991Z,874.88
2018-03-20T04:04:56.969Z,874.87
2018-03-20T04:06:17.956Z,874.90
2018-03-20T04:06:56.985Z,874.89
2018-03-20T04:07:56.920Z,874.88
2018-03-20T04:09:17.899Z,874.91
2018-03-20T04:09:56.877Z,874.94
2018-03-20T04:11:17.865Z,874.92
2018-03-20T04:11:56.846Z,874.94
2018-03-20T04:12:56.826Z,874.93
2018-03-20T04:14:17.812Z,874.92
2018-03-20T04:14:56.788Z,874.93
2018-03-20T04:16:17.774Z,874.95
2018-03-20T04:16:56.752Z,874.93
2018-03-20T04:17:56.733Z,874.95
2018-03-20T04:19:17.715Z,874.96
2018-03-20T04:19:56.695Z,874.96
2018-03-20T04:21:17.680Z,874.95
2018-03-20T04:21:56.659Z,874.96
2018-03-20T04:22:56.641Z,874.92
2018-03-20T04:24:17.623Z,874.92
2018-03-20T04:24:56.604Z,874.92
2018-03-20T04:26:17.590Z,874.93
2018-03-20T04:26:56.566Z,874.92
2018-03-20T04:27:56.552Z,874.89
2018-03-20T04:29:17.533Z,874.91
2018-03-20T04:29:56.518Z,874.93
2018-03-20T04:31:17.500Z,874.96
2018-03-20T04:31:56.478Z,874.93
2018-03-20T04:32:56.455Z,874.93
2018-03-20T04:34:17.441Z,874.91
2018-03-20T04:34:56.421Z,874.94
2018-03-20T04:36:17.402Z,874.96
2018-03-20T04:36:56.385Z,874.95
2018-03-20T04:37:56.362Z,874.95
2018-03-20T04:39:17.349Z,874.93
2018-03-20T04:39:56.321Z,874.94
2018-03-20T04:41:17.312Z,874.93
2018-03-20T04:41:56.290Z,874.96
2018-03-20T04:42:56.272Z,874.98
2018-03-20T04:44:17.258Z,874.96
2018-03-20T04:44:56.237Z,874.98
2018-03-20T04:46:17.217Z,874.98
2018-03-20T04:46:56.199Z,875.00
2018-03-20T04:47:56.173Z,874.99
2018-03-20T04:49:17.162Z,874.99
2018-03-20T04:49:56.142Z,875.00
2018-03-20T04:51:17.142Z,875.04
2018-03-20T04:51:56.104Z,875.03
2018-03-20T04:52:56.084Z,875.05
2018-03-20T04:54:17.069Z,875.04
2018-03-20T04:54:56.052Z,875.04
2018-03-20T04:56:17.037Z,875.05
2018-03-20T04:56:56.013Z,874.99
2018-03-20T04:57:55.994Z,875.06
2018-03-20T04:59:17.028Z,875.07
2018-03-20T04:59:55.955Z,875.08
2018-03-20T05:01:16.943Z,875.07
2018-03-20T05:01:55.917Z,875.07
2018-03-20T05:02:55.909Z,875.08
2018-03-20T05:04:16.881Z,875.08
2018-03-20T05:04:55.864Z,875.11
2018-03-20T05:06:16.852Z,875.09
2018-03-20T05:06:55.831Z,875.09
2018-03-20T05:07:55.810Z,875.12
2018-03-20T05:09:16.792Z,875.13
2018-03-20T05:09:55.780Z,875.11
2018-03-20T05:11:16.752Z,875.14
2018-03-20T05:11:55.736Z,875.16
2018-03-20T05:12:55.720Z,875.16
2018-03-20T05:14:16.700Z,875.18
2018-03-20T05:14:55.679Z,875.19
2018-03-20T05:16:16.659Z,875.23
2018-03-20T05:16:55.649Z,875.22
2018-03-20T05:17:55.627Z,875.21
2018-03-20T05:19:16.612Z,875.29
2018-03-20T05:19:55.594Z,875.25
2018-03-20T05:21:16.571Z,875.25
2018-03-20T05:21:55.547Z,875.27
2018-03-20T05:22:55.534Z,875.31
2018-03-20T05:24:16.518Z,875.32
2018-03-20T05:24:55.493Z,875.31
2018-03-20T05:26:16.478Z,875.28
2018-03-20T05:26:55.455Z,875.32
2018-03-20T05:27:55.439Z,875.31
2018-03-20T05:29:16.424Z,875.35
2018-03-20T05:29:55.404Z,875.30
2018-03-20T05:31:16.388Z,875.35
2018-03-20T05:31:55.368Z,875.34
2018-03-20T05:32:55.350Z,875.38
2018-03-20T05:34:16.336Z,875.38
2018-03-20T05:34:55.312Z,875.38
2018-03-20T05:36:16.292Z,875.41
2018-03-20T05:36:55.273Z,875.42
2018-03-20T05:37:55.259Z,875.48
2018-03-20T05:39:16.238Z,875.51
2018-03-20T05:39:55.213Z,875.50
2018-03-20T05:41:16.198Z,875.53
2018-03-20T05:41:55.221Z,875.49
2018-03-20T05:42:55.165Z,875.53
2018-03-20T05:44:16.143Z,875.51
2018-03-20T05:44:55.124Z,875.57
2018-03-20T05:46:16.112Z,875.54
2018-03-20T05:46:55.088Z,875.58
2018-03-20T05:47:55.068Z,875.63
2018-03-20T05:49:16.056Z,875.59
2018-03-20T05:49:55.029Z,875.59
2018-03-20T05:51:16.018Z,875.60
2018-03-20T05:51:54.994Z,875.63
2018-03-20T05:52:54.978Z,875.64
2018-03-20T05:54:15.960Z,875.63
2018-03-20T05:54:54.942Z,875.68
2018-03-20T05:56:15.927Z,875.69
2018-03-20T05:56:54.943Z,875.68
2018-03-20T05:57:54.884Z,875.68
2018-03-20T05:59:15.865Z,875.70
2018-03-20T05:59:54.850Z,875.67
2018-03-20T06:01:15.830Z,875.72
2018-03-20T06:01:54.810Z,875.72
2018-03-20T06:02:54.798Z,875.70
2018-03-20T06:04:15.778Z,875.74
2018-03-20T06:04:54.759Z,875.76
2018-03-20T06:06:15.784Z,875.77
2018-03-20T06:06:54.717Z,875.78
2018-03-20T06:07:54.704Z,875.77
2018-03-20T06:09:15.682Z,875.78
2018-03-20T06:09:54.662Z,875.80
2018-03-20T06:11:15.648Z,875.80
2018-03-20T06:11:54.634Z,875.81
2018-03-20T06:12:54.612Z,875.81
2018-03-20T06:14:15.595Z,875.78
2018-03-20T06:14:54.573Z,875.81
2018-03-20T06:16:15.554Z,875.84
2018-03-20T06:16:54.539Z,875.82
2018-03-20T06:17:54.522Z,875.87
2018-03-20T06:19:15.502Z,875.85
2018-03-20T06:19:54.475Z,875.87
2018-03-20T06:21:15.467Z,875.88
2018-03-20T06:21:54.488Z,875.89
2018-03-20T06:22:54.427Z,875.91
2018-03-20T06:24:15.416Z,875.89
2018-03-20T06:24:54.385Z,875.93
2018-03-20T06:26:15.373Z,875.90
2018-03-20T06:26:54.351Z,875.98
2018-03-20T06:27:54.333Z,875.96
2018-03-20T06:29:15.318Z,875.99
2018-03-20T06:29:54.300Z,876.00
2018-03-20T06:31:15.282Z,875.99
2018-03-20T06:31:54.259Z,876.05
2018-03-20T06:32:54.245Z,876.04
2018-03-20T06:34:15.233Z,876.05
2018-03-20T06:34:54.204Z,876.10
2018-03-20T06:36:15.194Z,876.11
2018-03-20T06:36:54.171Z,876.13
2018-03-20T06:37:54.154Z,876.15
2018-03-20T06:39:15.135Z,876.16
2018-03-20T06:39:54.118Z,876.18
2018-03-20T06:41:15.100Z,876.19
2018-03-20T06:41:54.083Z,876.20
2018-03-20T06:42:54.062Z,876.24
2018-03-20T06:44:15.043Z,876.22
2018-03-20T06:44:54.022Z,876.28
2018-03-20T06:46:15.007Z,876.27
2018-03-20T06:46:53.989Z,876.31
2018-03-20T06:47:53.971Z,876.30
2018-03-20T06:49:14.953Z,876.31
2018-03-20T06:49:53.938Z,876.36
2018-03-20T06:51:14.919Z,876.36
2018-03-20T06:51:53.896Z,876.35
2018-03-20T06:52:53.880Z,876.33
2018-03-20T06:54:14.866Z,876.34
2018-03-20T06:54:53.841Z,876.33
2018-03-20T06:56:14.827Z,876.36
2018-03-20T06:56:53.816Z,876.38
2018-03-20T06:57:53.792Z,876.37
2018-03-20T06:59:14.779Z,876.39
2018-03-20T06:59:53.752Z,876.42
2018-03-20T07:01:14.739Z,876.42
2018-03-20T07:01:53.716Z,876.43
2018-03-20T07:02:53.702Z,876.44
2018-03-20T07:04:14.684Z,876.47
2018-03-20T07:04:53.658Z,876.45
2018-03-20T07:06:14.717Z,876.48
2018-03-20T07:06:53.624Z,876.45
2018-03-20T07:07:53.609Z,876.46
2018-03-20T07:09:14.590Z,876.51
2018-03-20T07:09:53.572Z,876.52
2018-03-20T07:11:14.552Z,876.53
2018-03-20T07:11:53.538Z,876.56
2018-03-20T07:12:53.516Z,876.57
2018-03-20T07:14:14.503Z,876.60
2018-03-20T07:14:53.484Z,876.54
2018-03-20T07:16:14.465Z,876.54
2018-03-20T07:16:53.447Z,876.56
2018-03-20T07:17:53.430Z,876.60
2018-03-20T07:19:14.419Z,876.58
2018-03-20T07:19:53.395Z,876.60
2018-03-20T07:21:14.373Z,876.59
2018-03-20T07:21:53.364Z,876.59
2018-03-20T07:22:53.347Z,876.58
2018-03-20T07:24:14.322Z,876.57
2018-03-20T07:24:53.300Z,876.55
2018-03-20T07:26:14.290Z,876.58
2018-03-20T07:26:53.263Z,876.58
2018-03-20T07:27:53.253Z,876.58
2018-03-20T07:29:14.230Z,876.59
2018-03-20T07:29:53.217Z,876.62
2018-03-20T07:31:14.194Z,876.57
2018-03-20T07:31:53.172Z,876.58
2018-03-20T07:32:53.158Z,876.59
2018-03-20T07:34:14.144Z,876.56
2018-03-20T07:34:53.124Z,876.54
2018-03-20T07:36:14.110Z,876.59
2018-03-20T07:36:53.087Z,876.55
2018-03-20T07:37:53.071Z,876.60
2018-03-20T07:39:14.065Z,876.57
2018-03-20T07:39:53.057Z,876.57
2018-03-20T07:41:14.023Z,876.56
2018-03-20T07:41:52.999Z,876.59
2018-03-20T07:42:52.987Z,876.61
2018-03-20T07:44:13.975Z,876.61
2018-03-20T07:44:52.952Z,876.63
2018-03-20T07:46:13.937Z,876.65
2018-03-20T07:46:52.915Z,876.66
2018-03-20T07:47:52.900Z,876.69
2018-03-20T07:49:13.881Z,876.66
2018-03-20T07:49:52.876Z,876.68
2018-03-20T07:51:13.847Z,876.68
2018-03-20T07:51:52.832Z,876.70
2018-03-20T07:52:52.820Z,876.70
2018-03-20T07:54:13.799Z,876.73
2018-03-20T07:54:52.779Z,876.74
2018-03-20T07:56:13.763Z,876.74
2018-03-20T07:56:52.747Z,876.76
2018-03-20T07:57:52.728Z,876.73
2018-03-20T07:59:13.712Z,876.75
2018-03-20T07:59:52.692Z,876.76
2018-03-20T08:01:13.679Z,876.80
2018-03-20T08:01:52.664Z,876.82
2018-03-20T08:02:52.647Z,876.87
2018-03-20T08:04:13.629Z,876.87
2018-03-20T08:04:52.613Z,876.90
2018-03-20T08:06:13.601Z,876.92
2018-03-20T08:06:52.579Z,876.92
2018-03-20T08:07:52.605Z,876.93
2018-03-20T08:09:13.538Z,876.97
2018-03-20T08:09:52.520Z,877.01
2018-03-20T08:11:13.512Z,877.03
2018-03-20T08:11:52.488Z,877.06
2018-03-20T08:12:52.476Z,877.01
2018-03-20T08:14:13.456Z,877.02
2018-03-20T08:14:52.437Z,877.02
2018-03-20T08:16:13.428Z,877.03
2018-03-20T08:16:52.405Z,877.04
2018-03-20T08:17:52.401Z,877.07
2018-03-20T08:19:13.376Z,877.08
2018-03-20T08:19:52.354Z,877.08
2018-03-20T08:21:13.339Z,877.10
2018-03-20T08:21:52.323Z,877.14
2018-03-20T08:22:52.315Z,877.08
2018-03-20T08:24:13.293Z,877.12
2018-03-20T08:24:52.278Z,877.12
2018-03-20T08:26:13.258Z,877.14
2018-03-20T08:26:52.244Z,877.13
2018-03-20T08:27:52.231Z,877.09
2018-03-20T08:29:13.211Z,877.10
2018-03-20T08:29:52.189Z,877.09
2018-03-20T08:31:13.183Z,877.11
2018-03-20T08:31:52.158Z,877.14
2018-03-20T08:32:52.142Z,877.16
2018-03-20T08:34:13.130Z,877.21
2018-03-20T08:34:52.116Z,877.17
2018-03-20T08:36:13.095Z,877.22
2018-03-20T08:36:52.085Z,877.17
2018-03-20T08:37:52.064Z,877.19
2018-03-20T08:39:13.053Z,877.24
2018-03-20T08:39:52.028Z,877.22
2018-03-20T08:41:13.017Z,877.25
2018-03-20T08:41:51.997Z,877.28
2018-03-20T08:42:51.987Z,877.26
2018-03-20T08:44:12.972Z,877.29
2018-03-20T08:44:51.949Z,877.29
2018-03-20T08:46:12.946Z,877.29
2018-03-20T08:46:51.918Z,877.30
2018-03-20T08:47:51.906Z,877.34
2018-03-20T08:49:12.890Z,877.34
2018-03-20T08:49:51.868Z,877.35
2018-03-20T08:51:12.854Z,877.36
2018-03-20T08:51:51.843Z,877.35
2018-03-20T08:52:51.826Z,877.38
2018-03-20T08:54:12.810Z,877.42
2018-03-20T08:54:51.786Z,877.42
2018-03-20T08:56:12.770Z,877.45
2018-03-20T08:56:51.760Z,877.52
2018-03-20T08:57:51.743Z,877.50
2018-03-20T08:59:12.729Z,877.50
2018-03-20T08:59:51.711Z,877.48
2018-03-20T09:01:12.694Z,877.54
2018-03-20T09:01:51.680Z,877.48
2018-03-20T09:02:51.660Z,877.49
2018-03-20T09:04:12.642Z,877.51
2018-03-20T09:04:51.629Z,877.52
2018-03-20T09:06:12.655Z,877.50
2018-03-20T09:06:51.602Z,877.50
2018-03-20T09:07:51.583Z,877.53
2018-03-20T09:09:12.580Z,877.54
2018-03-20T09:09:51.553Z,877.59
2018-03-20T09:11:12.541Z,877.57
2018-03-20T09:11:51.523Z,877.60
2018-03-20T09:12:51.500Z,877.62
2018-03-20T09:14:12.492Z,877.63
2018-03-20T09:14:51.468Z,877.66
2018-03-20T09:16:12.464Z,877.67
2018-03-20T09:16:51.444Z,877.67
2018-03-20T09:17:51.439Z,877.68
2018-03-20T09:19:12.414Z,877.67
2018-03-20T09:19:51.396Z,877.68
2018-03-20T09:21:12.390Z,877.68
2018-03-20T09:21:51.364Z,877.69
2018-03-20T09:22:51.349Z,877.69
2018-03-20T09:24:12.333Z,877.68
2018-03-20T09:24:51.316Z,877.69
2018-03-20T09:26:12.305Z,877.66
2018-03-20T09:26:51.287Z,877.65
2018-03-20T09:27:51.273Z,877.68
2018-03-20T09:29:12.259Z,877.68
2018-03-20T09:29:51.278Z,877.67
2018-03-20T09:31:12.228Z,877.64
2018-03-20T09:31:51.206Z,877.63
2018-03-20T09:32:51.190Z,877.69
2018-03-20T09:34:12.182Z,877.68
2018-03-20T09:34:51.165Z,877.69
2018-03-20T09:36:12.149Z,877.68
2018-03-20T09:36:51.124Z,877.67
2018-03-20T09:37:51.114Z,877.69
2018-03-20T09:39:12.098Z,877.76
2018-03-20T09:39:51.082Z,877.68
2018-03-20T09:41:12.064Z,877.71
2018-03-20T09:41:51.051Z,877.72
2018-03-20T09:42:51.032Z,877.77
2018-03-20T09:44:12.020Z,877.76
2018-03-20T09:44:51.002Z,877.75
2018-03-20T09:46:11.989Z,877.79
2018-03-20T09:46:50.971Z,877.86
2018-03-20T09:47:50.955Z,877.80
2018-03-20T09:49:11.950Z,877.82
2018-03-20T09:49:50.925Z,877.88
2018-03-20T09:51:11.913Z,877.86
2018-03-20T09:51:50.895Z,877.88
2018-03-20T09:52:50.874Z,877.88
2018-03-20T09:54:11.864Z,877.91
2018-03-20T09:54:50.844Z,877.90
2018-03-20T09:56:11.828Z,877.93
2018-03-20T09:56:50.819Z,877.94
2018-03-20T09:57:50.797Z,877.98
2018-03-20T09:59:11.782Z,877.99
2018-03-20T09:59:50.768Z,877.99
2018-03-20T10:01:11.757Z,877.97
2018-03-20T10:01:50.734Z,878.00
2018-03-20T10:02:50.727Z,877.98
2018-03-20T10:04:11.711Z,878.01
2018-03-20T10:04:50.686Z,878.02
2018-03-20T10:06:11.676Z,878.01
2018-03-20T10:06:50.656Z,878.02
2018-03-20T10:07:50.642Z,877.99
2018-03-20T10:09:11.628Z,878.04
2018-03-20T10:09:50.617Z,878.09
2018-03-20T10:11:11.601Z,878.02
2018-03-20T10:11:50.579Z,878.04
2018-03-20T10:12:50.568Z,878.07
2018-03-20T10:14:11.557Z,878.05
2018-03-20T10:14:50.531Z,878.10
2018-03-20T10:16:11.526Z,878.10
2018-03-20T10:16:50.502Z,878.10
2018-03-20T10:17:50.484Z,878.11
2018-03-20T10:19:11.478Z,878.08
2018-03-20T10:19:50.454Z,878.12
2018-03-20T10:21:11.443Z,878.15
2018-03-20T10:21:50.428Z,878.08
2018-03-20T10:22:50.406Z,878.14
2018-03-20T10:24:11.402Z,878.13
2018-03-20T10:24:50.379Z,878.10
2018-03-20T10:26:11.371Z,878.14
2018-03-20T10:26:50.345Z,878.12
2018-03-20T10:27:50.333Z,878.18
2018-03-20T10:29:11.323Z,878.13
2018-03-20T10:29:50.297Z,878.15
2018-03-20T10:31:11.292Z,878.11
2018-03-20T10:31:50.270Z,878.12
2018-03-20T10:32:50.252Z,878.11
2018-03-20T10:34:11.248Z,878.13
2018-03-20T10:34:50.223Z,878.12
2018-03-20T10:36:11.205Z,878.12
2018-03-20T10:36:50.190Z,878.14
2018-03-20T10:37:50.175Z,878.16
2018-03-20T10:39:11.160Z,878.21
2018-03-20T10:39:50.147Z,878.15
2018-03-20T10:41:11.131Z,878.25
2018-03-20T10:41:50.116Z,878.21
2018-03-20T10:42:50.095Z,878.22
2018-03-20T10:44:11.081Z,878.23
2018-03-20T10:44:50.067Z,878.26
2018-03-20T10:46:11.057Z,878.30
2018-03-20T10:46:50.045Z,878.29
2018-03-20T10:47:50.017Z,878.35
2018-03-20T10:49:11.006Z,878.32
2018-03-20T10:49:49.988Z,878.35
2018-03-20T10:51:10.976Z,878.36
2018-03-20T10:51:49.953Z,878.36
2018-03-20T10:52:49.934Z,878.37
2018-03-20T10:54:10.922Z,878.41
2018-03-20T10:54:49.911Z,878.41
2018-03-20T10:56:10.888Z,878.39
2018-03-20T10:56:49.876Z,878.39
2018-03-20T10:57:49.860Z,878.38
2018-03-20T10:59:10.847Z,878.35
2018-03-20T10:59:49.829Z,878.40
2018-03-20T11:01:10.814Z,878.37
2018-03-20T11:01:49.794Z,878.34
2018-03-20T11:02:49.780Z,878.37
2018-03-20T11:04:10.761Z,878.38
2018-03-20T11:04:49.742Z,878.41
2018-03-20T11:06:10.738Z,878.41
2018-03-20T11:06:49.708Z,878.42
2018-03-20T11:07:49.689Z,878.44
2018-03-20T11:09:10.681Z,878.48
2018-03-20T11:09:49.658Z,878.47
2018-03-20T11:11:10.658Z,878.51
2018-03-20T11:11:49.630Z,878.51
2018-03-20T11:12:49.613Z,878.48
2018-03-20T11:14:10.605Z,878.47
2018-03-20T11:14:49.589Z,878.52
2018-03-20T11:16:10.603Z,878.56
2018-03-20T11:16:49.552Z,878.57
2018-03-20T11:17:49.531Z,878.56
2018-03-20T11:19:10.528Z,878.61
2018-03-20T11:19:49.499Z,878.64
2018-03-20T11:21:10.485Z,878.61
2018-03-20T11:21:49.469Z,878.64
2018-03-20T11:22:49.452Z,878.64
2018-03-20T11:24:10.446Z,878.61
2018-03-20T11:24:49.416Z,878.60
2018-03-20T11:26:10.413Z,878.62
2018-03-20T11:26:49.394Z,878.64
2018-03-20T11:27:49.369Z,878.69
2018-03-20T11:29:10.362Z,878.65
2018-03-20T11:29:49.353Z,878.61
2018-03-20T11:31:10.334Z,878.62
2018-03-20T11:31:49.316Z,878.64
2018-03-20T11:32:49.293Z,878.68
2018-03-20T11:34:10.284Z,878.66
2018-03-20T11:34:49.267Z,878.67
2018-03-20T11:36:10.253Z,878.68
2018-03-20T11:36:49.236Z,878.67
2018-03-20T11:37:49.219Z,878.67
2018-03-20T11:39:10.213Z,878.70
2018-03-20T11:39:49.189Z,878.67
2018-03-20T11:41:10.177Z,878.68
2018-03-20T11:41:49.164Z,878.72
2018-03-20T11:42:49.143Z,878.69
2018-03-20T11:44:10.133Z,878.70
2018-03-20T11:44:49.113Z,878.69
2018-03-20T11:46:10.100Z,878.70
2018-03-20T11:46:49.086Z,878.73
2018-03-20T11:47:49.066Z,878.72
2018-03-20T11:49:10.054Z,878.71
2018-03-20T11:49:49.044Z,878.68
2018-03-20T11:51:10.029Z,878.70
2018-03-20T11:51:49.010Z,878.76
2018-03-20T11:52:48.993Z,878.71
2018-03-20T11:54:09.983Z,878.75
2018-03-20T11:54:48.963Z,878.73
2018-03-20T11:56:09.948Z,878.74
2018-03-20T11:56:48.933Z,878.72
2018-03-20T11:57:48.915Z,878.77
2018-03-20T11:59:09.906Z,878.79
2018-03-20T11:59:48.887Z,878.80
2018-03-20T12:01:09.887Z,878.80
2018-03-20T12:01:48.876Z,878.78
2018-03-20T12:02:48.847Z,878.78
2018-03-20T12:04:09.834Z,878.79
2018-03-20T12:04:48.850Z,878.82
2018-03-20T12:06:09.805Z,878.82
2018-03-20T12:06:48.781Z,878.80
2018-03-20T12:07:48.772Z,878.82
2018-03-20T12:09:10.651Z,878.84
2018-03-20T12:09:48.741Z,878.82
2018-03-20T12:11:09.728Z,878.79
2018-03-20T12:11:48.705Z,878.80
2018-03-20T12:12:48.691Z,878.81
2018-03-20T12:14:09.696Z,878.79
2018-03-20T12:14:48.667Z,878.81
2018-03-20T12:16:09.649Z,878.81
2018-03-20T12:16:48.637Z,878.79
2018-03-20T12:17:48.623Z,878.85
2018-03-20T12:19:09.609Z,878.81
2018-03-20T12:19:48.635Z,878.83
2018-03-20T12:21:09.577Z,878.84
2018-03-20T12:21:48.566Z,878.87
2018-03-20T12:22:48.545Z,878.88
2018-03-20T12:24:09.531Z,878.90
2018-03-20T12:24:48.508Z,878.86
2018-03-20T12:26:09.498Z,878.84
2018-03-20T12:26:48.482Z,878.90
2018-03-20T12:27:48.466Z,878.86